createdAt,value
2023-06-29T00:00:07.392Z,99951.91
2023-06-29T00:02:55.555Z,99954.02
2023-06-29T00:05:23.952Z,99955.48
2023-06-29T00:07:51.936Z,99958.98
2023-06-29T00:10:20.060Z,99961.98
2023-06-29T00:12:48.298Z,99963.60
2023-06-29T00:15:16.749Z,99962.09
2023-06-29T00:17:48.651Z,99961.08
2023-06-29T00:20:16.885Z,99970.17
2023-06-29T00:22:58.127Z,99972.63
2023-06-29T00:25:26.350Z,99974.44
2023-06-29T00:27:54.434Z,99971.69
2023-06-29T00:30:22.653Z,99973.31
2023-06-29T00:32:50.883Z,99972.31
2023-06-29T00:35:19.199Z,99971.71
2023-06-29T00:37:47.340Z,99971.93
2023-06-29T00:40:15.719Z,99970.96
2023-06-29T00:42:44.860Z,99971.33
2023-06-29T00:45:12.938Z,99969.11
2023-06-29T00:47:41.162Z,99974.55
2023-06-29T00:50:10.267Z,99976.15
2023-06-29T00:52:38.404Z,99974.60
2023-06-29T00:55:08.238Z,99971.35
2023-06-29T00:57:40.987Z,99968.81
2023-06-29T01:00:12.102Z,99968.83
2023-06-29T01:02:44.074Z,99971.27
2023-06-29T01:05:15.365Z,99965.41
2023-06-29T01:08:06.982Z,99965.11
2023-06-29T01:10:37.246Z,99965.88
2023-06-29T01:13:08.186Z,99967.68
2023-06-29T01:15:38.431Z,99967.90
2023-06-29T01:18:20.244Z,99966.93
2023-06-29T01:20:50.928Z,99961.73
2023-06-29T01:23:26.280Z,99959.67
2023-06-29T01:25:56.332Z,99963.39
2023-06-29T01:28:30.211Z,99966.90
2023-06-29T01:30:58.442Z,99957.39
2023-06-29T01:36:50.193Z,99958.61
2023-06-29T01:39:24.087Z,99958.96
2023-06-29T01:41:54.828Z,99952.55
2023-06-29T01:44:22.892Z,99955.14
2023-06-29T01:46:53.698Z,99955.85
2023-06-29T01:49:22.519Z,99951.33
2023-06-29T01:51:50.843Z,99951.31
2023-06-29T01:54:18.882Z,99949.42
2023-06-29T01:56:47.480Z,99952.35
2023-06-29T01:59:15.831Z,99956.19
2023-06-29T02:01:44.899Z,99958.96
2023-06-29T02:04:14.217Z,99960.04
2023-06-29T02:06:42.204Z,99961.96
2023-06-29T02:09:11.526Z,99960.45
2023-06-29T02:11:39.816Z,99958.17
2023-06-29T02:14:08.149Z,99960.23
2023-06-29T02:16:36.682Z,99961.46
2023-06-29T02:19:04.795Z,99962.88
2023-06-29T02:21:35.163Z,99968.96
2023-06-29T02:24:05.099Z,99969.45
2023-06-29T02:26:33.822Z,99970.96
2023-06-29T02:29:02.110Z,99976.86
2023-06-29T02:31:31.008Z,99980.88
2023-06-29T02:34:00.945Z,99978.94
2023-06-29T02:36:29.436Z,99982.05
2023-06-29T02:38:57.754Z,99978.87
2023-06-29T02:41:25.932Z,99985.14
2023-06-29T02:43:54.326Z,99985.90
2023-06-29T02:46:23.003Z,99984.19
2023-06-29T02:48:52.909Z,99984.08
2023-06-29T02:51:21.171Z,99982.06
2023-06-29T02:53:50.241Z,99983.81
2023-06-29T02:56:18.328Z,99984.00
2023-06-29T02:58:46.400Z,99985.13
2023-06-29T03:01:20.811Z,99986.06
2023-06-29T03:03:49.320Z,99988.36
2023-06-29T03:06:17.768Z,99988.04
2023-06-29T03:08:47.009Z,99993.95
2023-06-29T03:11:15.716Z,99995.69
2023-06-29T03:13:43.691Z,99994.80
2023-06-29T03:16:11.667Z,99994.58
2023-06-29T03:18:39.531Z,99996.93
2023-06-29T03:21:16.263Z,99996.80
2023-06-29T03:23:45.792Z,99999.88
2023-06-29T03:26:14.218Z,99991.53
2023-06-29T03:28:42.455Z,99992.69
2023-06-29T03:31:10.568Z,99994.91
2023-06-29T03:33:38.531Z,99989.34
2023-06-29T03:36:10.539Z,99990.20
2023-06-29T03:38:38.660Z,99996.34
2023-06-29T03:41:06.948Z,99995.98
2023-06-29T03:43:34.963Z,100001.27
2023-06-29T03:46:03.005Z,99998.55
2023-06-29T03:48:31.330Z,100000.71
2023-06-29T03:50:59.343Z,100006.45
2023-06-29T03:53:28.443Z,100011.86
2023-06-29T03:55:56.524Z,100012.79
2023-06-29T03:58:24.683Z,100013.46
2023-06-29T04:05:11.658Z,100018.95
2023-06-29T04:07:40.038Z,100018.64
2023-06-29T04:10:08.262Z,100023.07
2023-06-29T04:12:36.421Z,100024.36
2023-06-29T04:15:04.600Z,100023.00
2023-06-29T04:17:32.656Z,100031.94
2023-06-29T04:20:01.219Z,100032.52
2023-06-29T04:22:29.149Z,100033.46
2023-06-29T04:24:57.204Z,100031.01
2023-06-29T04:27:25.526Z,100032.89
2023-06-29T04:29:53.610Z,100031.98
2023-06-29T04:34:37.620Z,100033.95
2023-06-29T04:37:06.941Z,100033.48
2023-06-29T04:39:35.326Z,100032.96
2023-06-29T04:42:04.259Z,100033.57
2023-06-29T04:44:33.470Z,100032.98
2023-06-29T04:47:02.958Z,100035.75
2023-06-29T04:49:38.725Z,100035.31
2023-06-29T04:52:07.875Z,100031.13
2023-06-29T04:54:36.427Z,100028.48
2023-06-29T04:57:04.611Z,100029.90
2023-06-29T04:59:32.843Z,100028.44
2023-06-29T05:02:01.056Z,100028.70
2023-06-29T05:04:30.117Z,100027.73
2023-06-29T05:06:58.506Z,100033.63
2023-06-29T05:09:26.565Z,100034.23
2023-06-29T05:11:54.756Z,100034.08
2023-06-29T05:14:23.056Z,100031.79
2023-06-29T05:16:51.299Z,100032.92
2023-06-29T05:19:19.465Z,100028.81
2023-06-29T05:21:47.654Z,100027.30
2023-06-29T05:24:17.273Z,100024.23
2023-06-29T05:26:47.196Z,100021.98
2023-06-29T05:29:15.439Z,100022.87
2023-06-29T05:31:43.621Z,100024.13
2023-06-29T05:34:11.705Z,100020.20
2023-06-29T05:36:39.925Z,100022.13
2023-06-29T05:39:09.459Z,100022.88
2023-06-29T05:41:39.375Z,100021.23
2023-06-29T05:44:07.669Z,100017.38
2023-06-29T05:46:38.062Z,100017.02
2023-06-29T05:49:07.113Z,100020.46
2023-06-29T05:51:35.792Z,100019.27
2023-06-29T05:54:05.684Z,100021.90
2023-06-29T05:56:33.965Z,100026.02
2023-06-29T05:59:28.062Z,100026.86
2023-06-29T06:01:56.290Z,100027.05
2023-06-29T06:04:24.752Z,100024.24
2023-06-29T06:06:53.147Z,100022.02
2023-06-29T06:09:21.233Z,100019.80
2023-06-29T06:11:49.344Z,100017.36
2023-06-29T06:14:17.625Z,100016.94
2023-06-29T06:16:45.969Z,100015.96
2023-06-29T06:19:14.072Z,100021.05
2023-06-29T06:21:42.520Z,100020.71
2023-06-29T06:24:11.841Z,100023.02
2023-06-29T06:26:40.096Z,100023.98
2023-06-29T06:29:08.123Z,100027.04
2023-06-29T06:31:36.313Z,100030.55
2023-06-29T06:34:04.384Z,100029.35
2023-06-29T06:36:33.794Z,100033.34
2023-06-29T06:39:02.643Z,100030.06
2023-06-29T06:41:30.787Z,100030.02
2023-06-29T06:43:58.958Z,100025.93
2023-06-29T06:46:27.604Z,100025.65
2023-06-29T06:48:55.806Z,100024.14
2023-06-29T06:51:24.195Z,100024.83
2023-06-29T06:53:52.624Z,100024.30
2023-06-29T06:56:21.067Z,100022.19
2023-06-29T06:58:49.652Z,100014.88
2023-06-29T07:01:18.543Z,100020.95
2023-06-29T07:03:47.143Z,100018.69
2023-06-29T07:06:15.767Z,100018.48
2023-06-29T07:08:44.676Z,100015.65
2023-06-29T07:11:12.840Z,100018.13
2023-06-29T07:13:40.986Z,100020.56
2023-06-29T07:16:09.188Z,100015.34
2023-06-29T07:18:38.231Z,100015.49
2023-06-29T07:26:09.014Z,100019.21
2023-06-29T07:28:37.541Z,100020.92
2023-06-29T07:31:05.762Z,100015.52
2023-06-29T07:33:36.643Z,100016.81
2023-06-29T07:36:06.535Z,100011.84
2023-06-29T07:38:35.888Z,100008.36
2023-06-29T07:41:06.236Z,100007.73
2023-06-29T07:43:34.428Z,100009.81
2023-06-29T07:46:03.107Z,100006.80
2023-06-29T07:48:31.512Z,100008.31
2023-06-29T07:51:25.932Z,100007.17
2023-06-29T07:53:54.226Z,100006.76
2023-06-29T07:56:22.366Z,100003.88
2023-06-29T07:58:53.471Z,100007.06
2023-06-29T08:01:21.970Z,100006.59
2023-06-29T08:04:00.222Z,100008.45
2023-06-29T08:09:01.909Z,100003.09
2023-06-29T08:11:30.527Z,100005.73
2023-06-29T08:13:59.192Z,100001.50
2023-06-29T08:16:27.440Z,100002.89
2023-06-29T08:18:55.629Z,99994.42
2023-06-29T08:21:23.937Z,99993.45
2023-06-29T08:23:52.164Z,99996.39
2023-06-29T08:26:20.609Z,99994.42
2023-06-29T08:28:48.989Z,99995.72
2023-06-29T08:31:17.144Z,99996.85
2023-06-29T08:33:45.544Z,99994.17
2023-06-29T08:36:14.072Z,99995.77
2023-06-29T08:38:47.316Z,99998.48
2023-06-29T08:41:17.106Z,99997.52
2023-06-29T08:43:45.418Z,100001.33
2023-06-29T08:46:13.706Z,100000.00
2023-06-29T08:48:45.453Z,99999.05
2023-06-29T08:51:17.308Z,99996.20
2023-06-29T08:53:46.816Z,99994.88
2023-06-29T08:56:15.836Z,99990.61
2023-06-29T08:58:44.811Z,99990.26
2023-06-29T09:01:13.299Z,99992.77
2023-06-29T09:03:42.120Z,99990.53
2023-06-29T09:06:10.615Z,99990.70
2023-06-29T09:08:39.979Z,99991.58
2023-06-29T09:11:08.044Z,99990.73
2023-06-29T09:13:36.338Z,99988.68
2023-06-29T09:16:05.539Z,99988.94
2023-06-29T09:18:34.111Z,99982.90
2023-06-29T09:21:04.784Z,99983.44
2023-06-29T09:23:34.525Z,99982.34
2023-06-29T09:26:05.807Z,99977.30
2023-06-29T09:28:36.702Z,99977.48
2023-06-29T09:31:10.164Z,99977.15
2023-06-29T09:33:39.355Z,99980.20
2023-06-29T09:36:09.660Z,99978.52
2023-06-29T09:38:38.909Z,99967.91
2023-06-29T09:41:08.248Z,99973.96
2023-06-29T09:43:39.169Z,99974.21
2023-06-29T09:46:10.512Z,99970.31
2023-06-29T09:51:25.132Z,99966.32
2023-06-29T09:53:53.743Z,99971.41
2023-06-29T09:56:22.987Z,99964.95
2023-06-29T09:58:53.469Z,99963.86
2023-06-29T10:01:23.904Z,99963.77
2023-06-29T10:03:51.920Z,99960.62
2023-06-29T10:06:26.462Z,99958.00
2023-06-29T10:08:56.798Z,99963.05
2023-06-29T10:11:30.550Z,99959.47
2023-06-29T10:14:02.880Z,99955.27
2023-06-29T10:16:36.975Z,99956.96
2023-06-29T10:19:32.868Z,99956.56
2023-06-29T10:22:06.583Z,99955.05
2023-06-29T10:24:46.332Z,99954.79
2023-06-29T10:27:17.209Z,99953.31
2023-06-29T10:29:45.645Z,99958.20
2023-06-29T10:32:33.315Z,99950.36
2023-06-29T10:35:03.918Z,99951.73
2023-06-29T10:37:33.439Z,99953.40
2023-06-29T10:40:02.746Z,99950.35
2023-06-29T10:42:31.190Z,99948.41
2023-06-29T10:44:59.364Z,99949.95
2023-06-29T10:47:29.587Z,99949.30
2023-06-29T10:50:10.204Z,99946.19
2023-06-29T10:52:39.853Z,99944.24
2023-06-29T10:55:24.858Z,99944.35
2023-06-29T10:58:00.172Z,99937.09
2023-06-29T11:04:41.367Z,99929.91
2023-06-29T11:07:12.267Z,99931.54
2023-06-29T11:09:40.238Z,99923.34
2023-06-29T11:12:09.253Z,99927.06
2023-06-29T11:14:39.456Z,99925.45
2023-06-29T11:17:09.505Z,99926.53
2023-06-29T11:19:43.943Z,99921.33
2023-06-29T11:22:12.136Z,99914.42
2023-06-29T11:24:42.778Z,99916.41
2023-06-29T11:27:11.533Z,99916.42
2023-06-29T11:29:39.492Z,99918.25
2023-06-29T11:32:14.127Z,99914.16
2023-06-29T11:34:42.484Z,99907.95
2023-06-29T11:39:59.334Z,99909.23
2023-06-29T11:42:27.598Z,99902.85
2023-06-29T11:45:06.010Z,99898.61
2023-06-29T11:47:34.444Z,99903.08
2023-06-29T11:50:04.497Z,99895.79
2023-06-29T11:52:33.468Z,99893.21
2023-06-29T11:55:04.012Z,99893.42
2023-06-29T11:57:35.602Z,99892.83
2023-06-29T12:00:09.013Z,99894.65
2023-06-29T12:02:44.068Z,99889.88
2023-06-29T12:05:12.492Z,99884.34
2023-06-29T12:07:45.753Z,99882.81
2023-06-29T12:10:24.371Z,99882.56
2023-06-29T12:13:00.016Z,99881.09
2023-06-29T12:15:29.656Z,99874.52
2023-06-29T12:18:11.865Z,99871.23
2023-06-29T12:20:42.659Z,99868.51
2023-06-29T12:23:13.851Z,99864.28
2023-06-29T12:25:51.333Z,99870.85
2023-06-29T12:28:20.300Z,99869.70
2023-06-29T12:30:48.889Z,99868.48
2023-06-29T12:33:17.559Z,99867.55
2023-06-29T12:35:45.696Z,99864.61
2023-06-29T12:38:14.166Z,99867.08
2023-06-29T12:40:42.369Z,99863.16
2023-06-29T12:43:10.815Z,99853.86
2023-06-29T12:45:38.999Z,99859.32
2023-06-29T12:48:07.546Z,99854.82
2023-06-29T12:50:36.596Z,99851.92
2023-06-29T12:53:04.812Z,99847.66
2023-06-29T12:55:32.816Z,99854.09
2023-06-29T12:58:01.152Z,99854.94
2023-06-29T13:00:29.335Z,99849.36
2023-06-29T13:02:58.761Z,99850.67
2023-06-29T13:05:27.055Z,99846.16
2023-06-29T13:07:55.314Z,99839.98
2023-06-29T13:10:23.421Z,99838.56
2023-06-29T13:12:51.496Z,99835.69
2023-06-29T13:15:19.533Z,99835.48
2023-06-29T13:17:47.774Z,99838.21
2023-06-29T13:20:16.029Z,99841.08
2023-06-29T13:22:44.430Z,99830.11
2023-06-29T13:25:13.279Z,99833.59
2023-06-29T13:27:42.678Z,99829.13
2023-06-29T13:30:11.456Z,99828.80
2023-06-29T13:32:39.765Z,99825.63
2023-06-29T13:35:08.256Z,99827.36
2023-06-29T13:37:36.501Z,99819.21
2023-06-29T13:40:05.476Z,99819.19
2023-06-29T13:42:33.777Z,99822.02
2023-06-29T13:45:03.067Z,99820.05
2023-06-29T13:47:31.388Z,99821.23
2023-06-29T13:49:59.410Z,99824.06
2023-06-29T13:52:27.414Z,99819.20
2023-06-29T13:54:55.894Z,99811.17
2023-06-29T13:57:25.566Z,99807.58
2023-06-29T13:59:53.754Z,99799.92
2023-06-29T14:02:21.775Z,99802.60
2023-06-29T14:04:50.839Z,99805.57
2023-06-29T14:07:23.209Z,99795.08
2023-06-29T14:09:51.750Z,99802.65
2023-06-29T14:12:19.866Z,99810.77
2023-06-29T14:14:50.388Z,99809.05
2023-06-29T14:17:20.467Z,99810.77
2023-06-29T14:19:54.047Z,99813.39
2023-06-29T14:22:22.594Z,99816.36
2023-06-29T14:24:51.037Z,99816.80
2023-06-29T14:27:20.172Z,99816.96
2023-06-29T14:29:48.439Z,99820.83
2023-06-29T14:32:16.703Z,99815.57
2023-06-29T14:34:49.061Z,99816.73
2023-06-29T14:37:20.017Z,99813.80
2023-06-29T14:39:48.517Z,99816.10
2023-06-29T14:42:16.737Z,99812.37
2023-06-29T14:44:45.873Z,99820.23
2023-06-29T14:47:14.885Z,99816.70
2023-06-29T14:49:43.824Z,99812.62
2023-06-29T14:52:12.369Z,99817.42
2023-06-29T14:54:41.218Z,99816.86
2023-06-29T14:57:10.148Z,99811.10
2023-06-29T14:59:38.381Z,99807.63
2023-06-29T15:02:06.630Z,99807.48
2023-06-29T15:04:34.809Z,99806.55
2023-06-29T15:07:03.525Z,99803.30
2023-06-29T15:09:32.084Z,99806.77
2023-06-29T15:12:00.518Z,99808.38
2023-06-29T15:14:29.384Z,99807.10
2023-06-29T15:16:57.372Z,99807.68
2023-06-29T15:19:26.336Z,99804.70
2023-06-29T15:22:12.031Z,99801.81
2023-06-29T15:24:40.428Z,99801.27
2023-06-29T15:27:08.766Z,99793.14
2023-06-29T15:29:37.416Z,99790.66
2023-06-29T15:32:06.607Z,99788.22
2023-06-29T15:34:34.969Z,99784.27
2023-06-29T15:37:04.414Z,99783.13
2023-06-29T15:39:33.387Z,99784.88
2023-06-29T15:42:02.676Z,99784.75
2023-06-29T15:44:32.691Z,99783.61
2023-06-29T15:47:00.892Z,99781.70
2023-06-29T15:49:29.080Z,99783.63
2023-06-29T15:51:57.310Z,99778.80
2023-06-29T15:54:25.515Z,99780.23
2023-06-29T15:56:53.946Z,99783.48
2023-06-29T15:59:22.125Z,99781.56
2023-06-29T16:01:51.462Z,99780.62
2023-06-29T16:04:19.669Z,99774.66
2023-06-29T16:06:48.041Z,99773.77
2023-06-29T16:09:16.996Z,99774.18
2023-06-29T16:11:45.196Z,99769.67
2023-06-29T16:14:13.630Z,99769.73
2023-06-29T16:16:42.008Z,99767.88
2023-06-29T16:19:16.173Z,99767.71
2023-06-29T16:21:46.455Z,99767.05
2023-06-29T16:24:14.876Z,99769.11
2023-06-29T16:26:43.168Z,99771.13
2023-06-29T16:29:12.558Z,99769.98
2023-06-29T16:31:42.689Z,99772.93
2023-06-29T16:34:14.206Z,99769.36
2023-06-29T16:36:42.371Z,99774.70
2023-06-29T16:39:10.517Z,99774.06
2023-06-29T16:41:40.598Z,99773.27
2023-06-29T16:44:09.179Z,99772.27
2023-06-29T16:46:39.183Z,99775.23
2023-06-29T16:49:07.988Z,99779.03
2023-06-29T16:51:37.187Z,99775.17
2023-06-29T16:54:05.508Z,99770.28
2023-06-29T16:56:33.606Z,99767.48
2023-06-29T16:59:01.655Z,99769.26
2023-06-29T17:01:29.780Z,99770.81
2023-06-29T17:03:58.257Z,99770.02
2023-06-29T17:06:26.313Z,99770.98
2023-06-29T17:08:54.431Z,99774.23
2023-06-29T17:11:22.499Z,99770.11
2023-06-29T17:13:51.871Z,99770.99
2023-06-29T17:16:20.119Z,99769.09
2023-06-29T17:18:48.894Z,99770.15
2023-06-29T17:21:18.545Z,99772.73
2023-06-29T17:23:46.931Z,99773.46
2023-06-29T17:26:15.059Z,99770.48
2023-06-29T17:28:43.216Z,99768.14
2023-06-29T17:31:11.660Z,99767.58
2023-06-29T17:33:53.516Z,99764.67
2023-06-29T17:36:24.380Z,99764.35
2023-06-29T17:38:53.149Z,99766.12
2023-06-29T17:41:21.920Z,99763.38
2023-06-29T17:43:50.268Z,99766.06
2023-06-29T17:46:18.675Z,99768.46
2023-06-29T17:48:48.335Z,99766.05
2023-06-29T17:51:18.838Z,99765.43
2023-06-29T17:53:47.967Z,99768.69
2023-06-29T17:56:17.194Z,99768.89
2023-06-29T17:58:45.363Z,99768.34
2023-06-29T18:01:15.443Z,99762.46
2023-06-29T18:03:43.897Z,99766.13
2023-06-29T18:06:13.282Z,99766.14
2023-06-29T18:08:41.956Z,99768.98
2023-06-29T18:11:09.992Z,99769.64
2023-06-29T18:13:38.347Z,99764.77
2023-06-29T18:16:06.603Z,99761.05
2023-06-29T18:18:35.225Z,99759.55
2023-06-29T18:21:04.800Z,99761.31
2023-06-29T18:23:32.974Z,99764.52
2023-06-29T18:26:02.503Z,99765.50
2023-06-29T18:28:30.639Z,99766.20
2023-06-29T18:30:58.782Z,99767.31
2023-06-29T18:33:27.021Z,99765.41
2023-06-29T18:35:55.179Z,99770.80
2023-06-29T18:38:23.678Z,99768.05
2023-06-29T18:40:52.134Z,99773.61
2023-06-29T18:43:20.614Z,99778.34
2023-06-29T18:45:50.681Z,99778.80
2023-06-29T18:48:18.663Z,99778.67
2023-06-29T18:50:48.193Z,99776.40
2023-06-29T18:53:16.202Z,99777.66
2023-06-29T18:55:44.825Z,99783.02
2023-06-29T18:58:13.184Z,99781.27
2023-06-29T19:04:56.341Z,99786.24
2023-06-29T19:07:23.083Z,99791.94
2023-06-29T19:09:49.871Z,99793.93
2023-06-29T19:12:16.599Z,99796.10
2023-06-29T19:14:43.415Z,99799.85
2023-06-29T19:17:10.357Z,99800.52
2023-06-29T19:19:37.201Z,99806.45
2023-06-29T19:22:04.057Z,99808.91
2023-06-29T19:24:30.663Z,99804.41
2023-06-29T19:26:57.782Z,99816.02
2023-06-29T19:29:24.760Z,99815.09
2023-06-29T19:31:51.686Z,99821.25
2023-06-29T19:34:18.438Z,99824.63
2023-06-29T19:36:47.432Z,99830.73
2023-06-29T19:39:16.218Z,99837.75
2023-06-29T19:41:43.543Z,99843.98
2023-06-29T19:44:10.187Z,99843.38
2023-06-29T19:46:39.482Z,99845.04
2023-06-29T19:49:06.337Z,99849.52
2023-06-29T19:51:34.427Z,99851.91
2023-06-29T19:54:01.350Z,99846.98
2023-06-29T19:56:28.885Z,99847.11
2023-06-29T19:58:56.047Z,99854.34
2023-06-29T20:01:23.116Z,99857.12
2023-06-29T20:03:50.136Z,99871.46
2023-06-29T20:06:16.883Z,99863.48
2023-06-29T20:08:43.659Z,99866.25
2023-06-29T20:11:10.255Z,99867.90
2023-06-29T20:13:36.854Z,99857.94
2023-06-29T20:16:03.686Z,99858.64
2023-06-29T20:18:30.341Z,99860.10
2023-06-29T20:20:57.033Z,99863.17
2023-06-29T20:23:23.649Z,99862.42
2023-06-29T20:25:51.326Z,99864.23
2023-06-29T20:28:17.800Z,99865.35
2023-06-29T20:30:44.518Z,99871.57
2023-06-29T20:33:11.679Z,99863.84
2023-06-29T20:35:38.339Z,99867.30
2023-06-29T20:38:04.894Z,99871.27
2023-06-29T20:40:31.984Z,99874.03
2023-06-29T20:42:59.385Z,99873.46
2023-06-29T20:45:26.441Z,99875.05
2023-06-29T20:47:53.652Z,99874.30
2023-06-29T20:50:20.367Z,99877.61
2023-06-29T20:52:47.580Z,99876.97
2023-06-29T20:55:14.623Z,99878.47
2023-06-29T20:57:41.300Z,99877.40
2023-06-29T21:00:11.956Z,99874.69
2023-06-29T21:02:39.924Z,99869.70
2023-06-29T21:05:07.163Z,99873.42
2023-06-29T21:07:34.298Z,99873.73
2023-06-29T21:10:01.003Z,99877.08
2023-06-29T21:12:27.958Z,99877.30
2023-06-29T21:14:55.331Z,99880.25
2023-06-29T21:17:22.552Z,99878.38
2023-06-29T21:19:49.929Z,99877.45
2023-06-29T21:22:18.244Z,99877.04
2023-06-29T21:24:46.156Z,99882.02
2023-06-29T21:27:18.008Z,99882.91
2023-06-29T21:29:47.606Z,99883.64
2023-06-29T21:32:15.614Z,99885.70
2023-06-29T21:34:43.634Z,99882.67
2023-06-29T21:37:11.374Z,99880.17
2023-06-29T21:39:39.421Z,99883.56
2023-06-29T21:42:07.047Z,99883.70
2023-06-29T21:44:33.836Z,99886.10
2023-06-29T21:47:01.745Z,99882.54
2023-06-29T21:49:28.789Z,99882.73
2023-06-29T21:51:55.902Z,99878.77
2023-06-29T21:54:22.961Z,99877.96
2023-06-29T21:56:50.432Z,99874.29
2023-06-29T21:59:17.926Z,99876.09
2023-06-29T22:01:45.095Z,99878.53
2023-06-29T22:04:12.733Z,99880.86
2023-06-29T22:06:40.583Z,99881.30
2023-06-29T22:09:07.417Z,99886.25
2023-06-29T22:11:34.261Z,99892.46
2023-06-29T22:14:01.430Z,99890.75
2023-06-29T22:16:28.611Z,99882.45
2023-06-29T22:18:56.168Z,99882.18
2023-06-29T22:21:24.596Z,99883.65
2023-06-29T22:23:52.877Z,99882.53
2023-06-29T22:26:19.912Z,99877.46
2023-06-29T22:28:47.690Z,99883.16
2023-06-29T22:31:17.501Z,99880.31
2023-06-29T22:33:44.936Z,99876.95
2023-06-29T22:36:12.374Z,99876.52
2023-06-29T22:38:40.995Z,99877.63
2023-06-29T22:41:08.347Z,99877.02
2023-06-29T22:43:35.349Z,99875.04
2023-06-29T22:46:02.597Z,99873.08
2023-06-29T22:48:29.592Z,99870.90
2023-06-29T22:50:56.840Z,99871.45
2023-06-29T22:53:23.851Z,99866.97
2023-06-29T22:55:50.688Z,99866.80
2023-06-29T22:58:24.653Z,99867.65
2023-06-29T23:00:55.479Z,99868.34
2023-06-29T23:03:23.623Z,99868.36
2023-06-29T23:05:50.733Z,99868.90
2023-06-29T23:08:17.682Z,99866.78
2023-06-29T23:10:47.018Z,99863.58
2023-06-29T23:13:17.521Z,99862.26
2023-06-29T23:15:45.958Z,99860.14
2023-06-29T23:18:13.783Z,99856.56
2023-06-29T23:20:45.258Z,99853.95
2023-06-29T23:23:13.547Z,99857.00
2023-06-29T23:25:43.864Z,99855.02
2023-06-29T23:28:11.050Z,99858.77
2023-06-29T23:30:40.431Z,99863.45
2023-06-29T23:33:08.736Z,99864.00
2023-06-29T23:35:35.882Z,99858.69
2023-06-29T23:38:02.574Z,99860.66
2023-06-29T23:40:31.211Z,99859.51
2023-06-29T23:42:58.559Z,99857.89
2023-06-29T23:45:25.933Z,99855.73
2023-06-29T23:47:52.560Z,99854.95
2023-06-29T23:50:19.476Z,99859.11
2023-06-29T23:52:47.133Z,99855.14
2023-06-29T23:55:13.897Z,99853.53
2023-06-29T23:57:40.975Z,99855.56
